Airfield :
LOGIN :

Register | Disclaimer

   EN    FR    IT 

 










Legend :    VFR   Marginal VFR   IFR   Intensive IFR   Very Intensive IFR
Visi :
Ceiling :
>= 8 km
>= 3000ft
5 to 8 km
1000 to 3000 ft
1500m to 5 km
500 to 1000 ft
800 to 1500m
200 to 500 ft
< 800m
< 200 ft
Symbols :   Thunderstorms  Fog  Heavy snow  Heavy precipitations  Wind > 20 kt
SIGMETs :     Misc.  Thunderstorms  Icing  Turbulence  Mountain Waves  Volcanic Ashes






- Airport Elevation : 1363 ft


ETIC - Grafenwohr Army Air Field

CURRENT METAR :
  • 250556Z AUTO 30008KT 9999 -DZ BKN014 BKN020 BKN026 BKN060 OVC075 11/11 A3038 RMK AO2 DZB55 CIG 014V075 BKN014 V FEW SLP291 P0000 60002 T01120110 10113 20098 52009 $

EXPIRED METARs :
  • 250526Z AUTO 28006KT 9999 FEW016 FEW021 SCT027 OVC075 11/11 A3037 RMK AO2 SLP285 $
  • 250456Z AUTO 31005KT 9999 BKN017 OVC065 10/10 A3038 RMK AO2 RAE00DZB00E05RAB05E18DZB18E20 SLP291 P0000 T01010101 $
  • 250420Z AUTO 30005KT 9999 FEW037 SCT045 OVC060 10/10 A3036 RMK AO2 RAE00DZB00E05RAB05E18DZB18E20 SLP284 $
  • 250356Z AUTO 30009KT 9999 -RA FEW015 FEW023 BKN033 OVC041 10/10 A3036 RMK AO2 RAB12 SLP282 P0001 T00990099 $
  • 250342Z AUTO 30008KT 9999 -RA FEW017 SCT024 SCT030 OVC039 10/10 A3036 RMK AO2 RAB12 SLP282 $
  • 250312Z AUTO 28006KT 9999 -RA FEW008 BKN020 OVC028 10/10 A3036 RMK AO2 RAB12 SLP282 $

TAF TAF ETIC
Valid from the 25 at 02:00 until the 26 at 08:00 UTC


250200Z 2502/2608 VRB06KT 8000 -SHRA SCT010 BKN015 QNH3035INS
TEMPO 2502/2506 6000 BR FEW005 BKN010
BECMG 2507/2508 30009KT 9999 NSW SCT015 BKN025 QNH3035INS
BECMG 2510/2511 30012G18KT 9999 SCT010 BKN030 QNH3036INS
TEMPO 2511/2517 29015G25KT 8000 -SHRA SCT010 BKN020
BECMG 2519/2520 28006KT 9999 FEW015 SCT030 QNH3043INS
BECMG 2523/2524 28006KT 8000 BR FEW010 SCT025 QNH3045INS
TEMPO 2602/2605 5000 BR BKN015
BECMG 2605/2606 29006KT 9999 NSW SCT030 QNH3048INS TX18/2514Z TN08/2504Z



MET'MAP, your aeronautical weather chart ! - Copyright ORBIFLY December 2007 - Disclaimer

ORBIFLY MET'MAP TEAM :

Programming & Development : Alexandra Zaïnal
Concept & original design : Baudouin d'Aumeries
Assistance for programming : Marc-Olivier Méhu
Technical & hardware support : Manuel Goepfert

Contact : metmap@orbifly.com




SOURCES & CREDITS :

   NOAA